Time;durP1;ratioP1;P1;durP2;ratioP2;P2;SDS_P1;SDS_P2;PMS_P1;PMS_P2;Temp;Humidity;BMP_temperature;BMP_pressure;BME280_temperature;BME280_humidity;BME280_pressure;Samples;Min_cycle;Max_cycle;Signal;HPM_P1;HPM_P2
2021/08/02 00:01:13;;;;;;;17.23;8.77;;;15.60;97.30;;;;;;4981335;28;20492;-82
2021/08/02 00:03:49;;;;;;;11.40;8.30;;;15.60;97.30;;;;;;4980983;28;20422;-83
2021/08/02 00:06:24;;;;;;;18.23;8.07;;;15.60;97.30;;;;;;4997136;28;20449;-82
2021/08/02 00:09:03;;;;;;;12.53;7.50;;;15.60;97.30;;;;;;4981411;28;20460;-82
2021/08/02 00:11:39;;;;;;;15.20;7.90;;;15.60;97.30;;;;;;4982030;28;20457;-82
2021/08/02 00:14:06;;;;;;;20.80;8.50;;;15.60;97.30;;;;;;4982315;28;20418;-82
2021/08/02 00:16:33;;;;;;;23.43;9.43;;;15.60;97.30;;;;;;4991843;28;20461;-82
2021/08/02 00:18:59;;;;;;;13.33;8.10;;;15.60;97.30;;;;;;4999024;28;20483;-83
2021/08/02 00:21:25;;;;;;;16.20;8.20;;;15.60;97.30;;;;;;4997706;28;20464;-82
2021/08/02 00:23:50;;;;;;;14.10;7.50;;;15.60;97.30;;;;;;4997347;28;20216;-82
2021/08/02 00:26:17;;;;;;;17.20;8.40;;;15.60;97.30;;;;;;5000218;28;20181;-82
2021/08/02 00:28:44;;;;;;;12.67;8.47;;;15.60;97.30;;;;;;4999309;28;20189;-81
2021/08/02 00:31:10;;;;;;;17.80;8.77;;;15.60;97.30;;;;;;4998005;28;20452;-82
2021/08/02 00:33:36;;;;;;;14.57;8.20;;;15.70;97.30;;;;;;4998475;28;20560;-82
2021/08/02 00:36:26;;;;;;;12.00;7.33;;;15.70;97.30;;;;;;4998034;28;20479;-83
2021/08/02 00:39:28;;;;;;;12.40;7.97;;;15.70;97.30;;;;;;4979790;28;20192;-82
2021/08/02 00:42:32;;;;;;;16.60;7.50;;;15.70;97.30;;;;;;4998979;28;20413;-81
2021/08/02 00:45:20;;;;;;;10.90;7.37;;;15.70;97.30;;;;;;4997775;28;20420;-82
2021/08/02 00:47:48;;;;;;;11.80;6.67;;;15.70;97.30;;;;;;4999817;28;20425;-82
2021/08/02 00:50:25;;;;;;;16.60;7.70;;;15.70;97.30;;;;;;4997385;28;20449;-81
2021/08/02 00:53:01;;;;;;;11.97;6.90;;;15.70;97.30;;;;;;4997534;28;20424;-80
2021/08/02 00:55:29;;;;;;;12.37;7.20;;;15.70;97.30;;;;;;4999730;28;20424;-81
2021/08/02 00:57:56;;;;;;;10.37;5.90;;;15.70;97.30;;;;;;5003885;28;20467;-82
2021/08/02 01:00:22;;;;;;;8.83;5.40;;;15.70;97.30;;;;;;5002868;28;20469;-82
2021/08/02 01:02:51;;;;;;;6.50;4.53;;;15.70;97.30;;;;;;5002086;28;20431;-81
2021/08/02 01:05:17;;;;;;;7.00;3.77;;;15.70;97.30;;;;;;5002716;28;20185;-82
2021/08/02 01:08:07;;;;;;;9.33;4.60;;;15.70;97.30;;;;;;5002305;28;20454;-81
2021/08/02 01:10:36;;;;;;;5.57;3.87;;;15.70;97.30;;;;;;5001688;28;20451;-81
2021/08/02 01:13:05;;;;;;;9.80;5.07;;;15.70;97.30;;;;;;5001942;28;20445;-82
2021/08/02 01:15:32;;;;;;;6.77;4.33;;;15.60;97.30;;;;;;5001098;28;20424;-82
2021/08/02 01:17:59;;;;;;;10.10;4.97;;;15.50;97.30;;;;;;4983867;28;20472;-81
2021/08/02 01:20:34;;;;;;;6.20;4.20;;;15.50;97.30;;;;;;4981099;28;20466;-79
2021/08/02 01:23:04;;;;;;;8.80;4.60;;;15.50;97.30;;;;;;4981626;28;20433;-81
2021/08/02 01:25:39;;;;;;;7.57;4.67;;;15.50;97.30;;;;;;4981795;28;20453;-82
2021/08/02 01:28:13;;;;;;;6.97;4.60;;;15.50;97.30;;;;;;4981079;28;20476;-82
2021/08/02 01:30:50;;;;;;;10.23;4.50;;;15.40;97.30;;;;;;4981508;28;20433;-82
2021/08/02 01:33:31;;;;;;;9.67;4.87;;;15.50;97.30;;;;;;4982062;28;20501;-82
2021/08/02 01:36:00;;;;;;;8.00;5.43;;;15.50;97.30;;;;;;4983008;28;20481;-83
2021/08/02 01:38:27;;;;;;;9.37;4.97;;;15.50;97.30;;;;;;4984364;28;20410;-82
2021/08/02 01:40:53;;;;;;;8.80;4.53;;;15.50;97.30;;;;;;4982002;28;20448;-82
2021/08/02 01:43:18;;;;;;;8.20;4.57;;;15.50;97.30;;;;;;4981631;28;20826;-82
2021/08/02 01:46:07;;;;;;;4.70;3.50;;;15.50;97.30;;;;;;4981161;28;20174;-82
2021/08/02 01:49:01;;;;;;;8.20;5.00;;;15.50;97.30;;;;;;4981679;28;20179;-82
2021/08/02 01:51:35;;;;;;;4.90;4.03;;;15.40;97.30;;;;;;4981295;28;20429;-82
2021/08/02 01:54:17;;;;;;;6.03;4.33;;;15.40;97.30;;;;;;4982449;28;20394;-82
2021/08/02 01:57:00;;;;;;;5.60;3.90;;;15.40;97.30;;;;;;4981715;28;20468;-82
2021/08/02 01:59:33;;;;;;;13.47;4.47;;;15.40;97.30;;;;;;4980878;28;20525;-82
2021/08/02 02:02:03;;;;;;;6.10;4.37;;;15.40;97.30;;;;;;4980759;28;20410;-83
2021/08/02 02:04:32;;;;;;;8.70;5.03;;;15.30;97.30;;;;;;4980772;28;20476;-83
2021/08/02 02:07:00;;;;;;;7.60;4.77;;;15.30;97.30;;;;;;4982150;28;20418;-83
2021/08/02 02:09:27;;;;;;;7.07;4.77;;;15.30;97.30;;;;;;4997943;28;20426;-83
2021/08/02 02:11:56;;;;;;;7.03;4.70;;;15.30;97.30;;;;;;4983905;28;20551;-82
2021/08/02 02:14:24;;;;;;;8.53;5.00;;;15.30;97.30;;;;;;4983171;28;20418;-82
2021/08/02 02:16:52;;;;;;;7.33;4.77;;;15.30;97.30;;;;;;4990988;28;20467;-82
2021/08/02 02:19:23;;;;;;;6.87;5.23;;;15.30;97.30;;;;;;4999478;28;20500;-83
2021/08/02 02:21:50;;;;;;;10.57;5.00;;;15.40;97.30;;;;;;4998004;28;20425;-82
2021/08/02 02:24:17;;;;;;;8.20;5.30;;;15.40;97.30;;;;;;4995479;28;20412;-83
2021/08/02 02:26:44;;;;;;;9.70;5.70;;;15.40;97.30;;;;;;4995827;28;20463;-82
2021/08/02 02:29:13;;;;;;;10.50;5.87;;;15.40;97.30;;;;;;4993989;28;20420;-83
2021/08/02 02:31:41;;;;;;;6.83;4.90;;;15.40;97.30;;;;;;4997550;28;20401;-84
2021/08/02 02:34:08;;;;;;;8.53;5.53;;;15.40;97.30;;;;;;4996452;28;20483;-82
2021/08/02 02:36:36;;;;;;;8.57;5.00;;;15.40;97.30;;;;;;4996272;28;20465;-82
2021/08/02 02:39:02;;;;;;;9.70;5.70;;;15.40;97.30;;;;;;4997239;28;20802;-82
2021/08/02 02:41:29;;;;;;;9.20;5.30;;;15.40;97.30;;;;;;4998492;28;20440;-83
2021/08/02 02:43:56;;;;;;;8.83;4.63;;;15.40;97.30;;;;;;4997090;28;20449;-82
2021/08/02 02:46:24;;;;;;;6.17;4.40;;;15.40;97.30;;;;;;4997223;28;20661;-83
2021/08/02 02:48:51;;;;;;;8.73;5.10;;;15.40;97.30;;;;;;4996395;28;20425;-82
2021/08/02 02:51:17;;;;;;;9.40;5.30;;;15.40;97.30;;;;;;4991566;28;20441;-80
2021/08/02 02:53:44;;;;;;;10.20;5.67;;;15.40;97.30;;;;;;4991795;28;21099;-83
2021/08/02 02:56:12;;;;;;;11.40;5.60;;;15.40;97.30;;;;;;4991521;28;20804;-82
2021/08/02 02:58:40;;;;;;;7.90;5.60;;;15.40;97.30;;;;;;4993793;28;20419;-83
2021/08/02 03:01:06;;;;;;;8.97;5.40;;;15.40;97.30;;;;;;4994295;28;20440;-81
2021/08/02 03:03:34;;;;;;;10.87;5.23;;;15.40;97.30;;;;;;4995523;28;20449;-81
2021/08/02 03:06:01;;;;;;;9.20;5.87;;;15.40;97.30;;;;;;4993711;28;20417;-80
2021/08/02 03:08:28;;;;;;;8.87;5.60;;;15.40;97.30;;;;;;4994354;28;20417;-80
2021/08/02 03:10:56;;;;;;;8.13;5.23;;;15.40;97.30;;;;;;4993951;28;20580;-81
2021/08/02 03:13:22;;;;;;;10.40;5.23;;;15.40;97.30;;;;;;4995157;28;20857;-82
2021/08/02 03:15:48;;;;;;;9.30;5.20;;;15.30;97.30;;;;;;4995359;28;20796;-83
2021/08/02 03:18:13;;;;;;;8.00;4.67;;;15.30;97.30;;;;;;4977170;28;20472;-82
2021/08/02 03:20:41;;;;;;;9.07;5.00;;;15.30;97.30;;;;;;4991770;28;20856;-83
2021/08/02 03:23:12;;;;;;;10.10;4.83;;;15.30;97.30;;;;;;4975564;28;20577;-82
2021/08/02 03:25:50;;;;;;;12.83;5.00;;;15.30;97.30;;;;;;4975139;28;20705;-81
2021/08/02 03:28:42;;;;;;;9.33;5.03;;;15.30;97.30;;;;;;4989316;28;20432;-82
2021/08/02 03:31:11;;;;;;;9.10;5.30;;;15.30;97.30;;;;;;4976263;28;20449;-81
2021/08/02 03:33:39;;;;;;;6.50;4.60;;;15.30;97.30;;;;;;4975264;28;20414;-83
2021/08/02 03:36:10;;;;;;;8.83;5.53;;;15.30;97.30;;;;;;4975042;28;20422;-81
2021/08/02 03:38:37;;;;;;;8.50;5.10;;;15.30;97.30;;;;;;4975724;28;20841;-82
2021/08/02 03:41:08;;;;;;;8.77;4.87;;;15.30;97.30;;;;;;4976843;28;20430;-83
2021/08/02 03:43:37;;;;;;;10.70;4.97;;;15.30;97.30;;;;;;4976631;28;20414;-82
2021/08/02 03:46:04;;;;;;;10.27;6.10;;;15.30;97.30;;;;;;4975947;28;20414;-82
2021/08/02 03:48:31;;;;;;;7.20;4.90;;;15.30;97.30;;;;;;4976183;28;20414;-81
2021/08/02 03:50:57;;;;;;;9.80;5.43;;;15.30;97.30;;;;;;4976729;28;20434;-82
2021/08/02 03:53:23;;;;;;;8.57;5.40;;;15.30;97.30;;;;;;4977393;28;20421;-82
2021/08/02 03:55:50;;;;;;;7.83;4.80;;;15.30;97.30;;;;;;4981447;28;20493;-83
2021/08/02 03:58:16;;;;;;;11.27;5.53;;;15.30;97.30;;;;;;4980742;28;20210;-81
2021/08/02 04:00:41;;;;;;;8.50;5.20;;;15.30;97.30;;;;;;4980991;28;20449;-82
2021/08/02 04:03:07;;;;;;;11.50;6.20;;;15.30;97.30;;;;;;4980930;28;20174;-82
2021/08/02 04:05:33;;;;;;;11.60;6.20;;;15.30;97.30;;;;;;4980752;28;20181;-84
2021/08/02 04:07:58;;;;;;;10.83;6.70;;;15.30;97.30;;;;;;4980974;28;20182;-82
2021/08/02 04:10:27;;;;;;;12.67;6.43;;;15.30;97.30;;;;;;4977911;28;20198;-80
2021/08/02 04:12:53;;;;;;;11.63;6.43;;;15.30;97.30;;;;;;4978067;28;20185;-82
2021/08/02 04:15:19;;;;;;;11.73;6.83;;;15.30;97.30;;;;;;4978685;28;20652;-81
2021/08/02 04:17:44;;;;;;;11.33;6.80;;;15.30;97.30;;;;;;4992922;28;20453;-82
2021/08/02 04:20:11;;;;;;;11.40;6.40;;;15.30;97.30;;;;;;4987140;28;20275;-81
2021/08/02 04:22:36;;;;;;;11.47;7.10;;;15.30;97.30;;;;;;4997378;28;20169;-81
2021/08/02 04:25:02;;;;;;;11.53;7.33;;;15.40;97.30;;;;;;4996552;28;20851;-81
2021/08/02 04:27:27;;;;;;;15.97;7.57;;;15.30;97.30;;;;;;4997379;28;20473;-81
2021/08/02 04:29:53;;;;;;;13.70;7.87;;;15.30;97.30;;;;;;4995846;28;20206;-81
2021/08/02 04:32:18;;;;;;;22.27;8.07;;;15.30;97.30;;;;;;4994182;28;20526;-82
2021/08/02 04:34:44;;;;;;;13.53;7.53;;;15.30;97.30;;;;;;4995163;28;20228;-81
2021/08/02 04:37:09;;;;;;;15.63;8.40;;;15.30;97.30;;;;;;4994006;28;20248;-80
2021/08/02 04:39:35;;;;;;;18.97;9.10;;;15.20;97.30;;;;;;4994961;28;20193;-81
2021/08/02 04:42:00;;;;;;;12.70;7.73;;;15.30;97.30;;;;;;4993150;28;20178;-81
2021/08/02 04:44:26;;;;;;;13.40;7.60;;;15.30;97.30;;;;;;4991700;28;20192;-81
2021/08/02 04:46:51;;;;;;;16.43;8.97;;;15.30;97.30;;;;;;4992665;28;20196;-82
2021/08/02 04:49:17;;;;;;;14.40;7.93;;;15.30;97.30;;;;;;4992187;28;20263;-82
2021/08/02 04:51:42;;;;;;;19.07;9.07;;;15.40;97.30;;;;;;4992544;28;20775;-82
2021/08/02 04:54:08;;;;;;;16.57;9.40;;;15.40;97.30;;;;;;4994979;28;20186;-82
2021/08/02 04:56:33;;;;;;;17.47;8.37;;;15.40;97.30;;;;;;4994890;28;20263;-81
2021/08/02 04:58:59;;;;;;;14.00;7.97;;;15.40;97.30;;;;;;4996118;28;20174;-78
2021/08/02 05:01:25;;;;;;;14.50;8.13;;;15.40;97.30;;;;;;4995149;28;20461;-83
2021/08/02 05:03:50;;;;;;;20.77;9.73;;;15.50;97.30;;;;;;4994925;28;20197;-81
2021/08/02 05:06:16;;;;;;;18.73;9.00;;;15.50;97.30;;;;;;4994510;28;20550;-80
2021/08/02 05:08:41;;;;;;;15.07;9.27;;;15.50;97.30;;;;;;4996031;28;20201;-80
2021/08/02 05:11:07;;;;;;;16.27;8.53;;;15.50;97.30;;;;;;4994263;28;20205;-82
2021/08/02 05:13:32;;;;;;;18.47;9.00;;;15.50;97.30;;;;;;4994579;28;20181;-81
2021/08/02 05:15:58;;;;;;;15.13;8.33;;;15.50;97.30;;;;;;4994026;28;20170;-82
2021/08/02 05:18:23;;;;;;;18.40;9.30;;;15.50;97.30;;;;;;4974018;28;20265;-82
2021/08/02 05:20:49;;;;;;;17.70;10.40;;;15.60;97.30;;;;;;4974142;28;20321;-81
2021/08/02 05:23:14;;;;;;;19.33;8.70;;;15.50;97.30;;;;;;4974325;28;20175;-81
2021/08/02 05:25:40;;;;;;;13.73;8.10;;;15.50;97.30;;;;;;4975540;28;20233;-81
2021/08/02 05:28:06;;;;;;;17.80;8.60;;;15.50;97.30;;;;;;4974090;28;20174;-79
2021/08/02 05:30:31;;;;;;;16.20;8.10;;;15.50;97.30;;;;;;4973424;28;20201;-82
2021/08/02 05:32:57;;;;;;;17.30;8.33;;;15.50;97.30;;;;;;4975091;28;20274;-81
2021/08/02 05:35:22;;;;;;;18.67;8.40;;;15.60;97.30;;;;;;4990655;28;20206;-82
2021/08/02 05:37:48;;;;;;;16.00;8.27;;;15.60;97.30;;;;;;4975513;28;20221;-81
2021/08/02 05:40:14;;;;;;;18.10;9.20;;;15.60;97.30;;;;;;4975173;28;20733;-82
2021/08/02 05:42:39;;;;;;;19.93;9.43;;;15.60;97.30;;;;;;4974435;28;20186;-82
2021/08/02 05:45:07;;;;;;;19.40;10.07;;;15.60;97.30;;;;;;4978098;28;20920;-81
2021/08/02 05:47:33;;;;;;;17.30;9.90;;;15.60;97.30;;;;;;4977150;28;20193;-82
2021/08/02 05:49:59;;;;;;;17.63;9.47;;;15.60;97.30;;;;;;4978619;28;20516;-82
2021/08/02 05:52:24;;;;;;;17.83;9.53;;;15.60;97.30;;;;;;4983894;28;20433;-81
2021/08/02 05:54:50;;;;;;;19.57;9.67;;;15.60;97.30;;;;;;5014445;28;20269;-80
2021/08/02 05:57:22;;;;;;;15.57;7.70;;;15.60;97.30;;;;;;4996331;28;20633;-81
2021/08/02 05:59:51;;;;;;;13.30;6.33;;;15.50;97.30;;;;;;4996780;28;20229;-81
2021/08/02 06:02:17;;;;;;;14.40;6.53;;;15.50;97.30;;;;;;4997118;28;20413;-82
2021/08/02 06:04:42;;;;;;;10.60;6.43;;;15.40;97.30;;;;;;4996897;28;20509;-81
2021/08/02 06:07:08;;;;;;;11.50;5.90;;;15.30;97.30;;;;;;4998183;28;20443;-82
2021/08/02 06:09:34;;;;;;;11.63;6.00;;;15.30;97.30;;;;;;4998128;28;20209;-81
2021/08/02 06:12:01;;;;;;;12.90;6.13;;;15.30;97.30;;;;;;4998422;28;20185;-82
2021/08/02 06:14:27;;;;;;;12.13;6.67;;;15.40;97.30;;;;;;4997488;28;20442;-81
2021/08/02 06:16:52;;;;;;;8.97;5.00;;;15.40;97.30;;;;;;4987774;28;20899;-82
2021/08/02 06:19:18;;;;;;;10.63;6.10;;;15.50;97.30;;;;;;4976028;28;20179;-81
2021/08/02 06:21:43;;;;;;;9.93;6.13;;;15.50;97.30;;;;;;4975322;28;20222;-82
2021/08/02 06:24:09;;;;;;;9.83;5.63;;;15.60;97.30;;;;;;4976552;28;20662;-83
2021/08/02 06:26:34;;;;;;;10.03;6.47;;;15.60;97.30;;;;;;4976794;28;20178;-82
2021/08/02 06:29:00;;;;;;;12.40;6.30;;;15.70;97.30;;;;;;4974970;28;20190;-82
2021/08/02 06:31:26;;;;;;;11.87;6.03;;;15.70;97.30;;;;;;4990610;28;20206;-82
2021/08/02 06:33:52;;;;;;;10.20;6.20;;;15.70;97.30;;;;;;4974210;28;20480;-80
2021/08/02 06:36:19;;;;;;;13.20;6.70;;;15.70;97.30;;;;;;4992247;28;20170;-82
2021/08/02 06:38:45;;;;;;;12.07;5.90;;;15.80;97.30;;;;;;4993287;28;20588;-82
2021/08/02 06:41:11;;;;;;;11.67;6.37;;;15.80;97.30;;;;;;4978390;28;20438;-82
2021/08/02 06:43:36;;;;;;;13.33;6.13;;;15.80;97.30;;;;;;4980917;28;20183;-82
2021/08/02 06:46:02;;;;;;;13.00;7.13;;;15.80;97.30;;;;;;4980903;28;20183;-83
2021/08/02 06:48:28;;;;;;;10.93;6.50;;;15.90;97.30;;;;;;4978963;28;20181;-82
2021/08/02 06:50:53;;;;;;;15.97;7.00;;;15.90;97.30;;;;;;4979249;28;20281;-81
2021/08/02 06:53:19;;;;;;;14.50;7.47;;;15.90;97.30;;;;;;4977830;28;20645;-82
2021/08/02 06:55:47;;;;;;;11.47;6.27;;;16.00;97.30;;;;;;4977993;28;20181;-82
2021/08/02 06:58:13;;;;;;;8.80;5.87;;;16.20;97.30;;;;;;4976896;28;20207;-83
2021/08/02 07:00:39;;;;;;;18.33;6.70;;;16.30;97.30;;;;;;4975954;28;20441;-82
2021/08/02 07:03:05;;;;;;;13.70;6.63;;;16.40;97.30;;;;;;4974937;28;20206;-81
2021/08/02 07:05:31;;;;;;;12.50;7.13;;;16.50;97.30;;;;;;4975776;28;20493;-80
2021/08/02 07:07:57;;;;;;;10.83;5.70;;;16.50;97.30;;;;;;4975773;28;20237;-81
2021/08/02 07:10:22;;;;;;;14.23;6.40;;;16.50;97.30;;;;;;4992627;28;20206;-80
2021/08/02 07:12:48;;;;;;;8.43;5.43;;;16.50;97.30;;;;;;4975842;28;20186;-81
2021/08/02 07:15:13;;;;;;;8.43;4.93;;;16.50;97.30;;;;;;4979874;28;20186;-81
2021/08/02 07:17:39;;;;;;;16.70;5.20;;;16.50;97.30;;;;;;4994724;28;20236;-80
2021/08/02 07:20:05;;;;;;;12.80;5.00;;;16.50;97.30;;;;;;4998325;28;20233;-82
2021/08/02 07:22:30;;;;;;;9.47;4.90;;;16.50;97.30;;;;;;4998570;28;20221;-81
2021/08/02 07:24:56;;;;;;;6.60;4.30;;;16.60;97.30;;;;;;4999712;28;20424;-82
2021/08/02 07:27:21;;;;;;;7.33;4.70;;;16.60;97.30;;;;;;5000703;28;20178;-80
2021/08/02 07:29:47;;;;;;;12.07;5.53;;;16.70;97.30;;;;;;4996578;28;20190;-81
2021/08/02 07:32:12;;;;;;;9.67;5.03;;;16.80;97.30;;;;;;4995214;28;20821;-81
2021/08/02 07:34:38;;;;;;;8.60;4.30;;;16.80;97.30;;;;;;4996797;28;20170;-80
2021/08/02 07:37:03;;;;;;;8.03;4.80;;;16.90;97.30;;;;;;4994435;28;20762;-81
2021/08/02 07:39:30;;;;;;;7.93;4.80;;;16.90;97.30;;;;;;4994682;28;20598;-82
2021/08/02 07:41:56;;;;;;;7.80;4.70;;;16.90;97.30;;;;;;4993907;28;20305;-81
2021/08/02 07:44:21;;;;;;;12.93;4.33;;;16.80;97.30;;;;;;4993951;28;20444;-81
2021/08/02 07:46:47;;;;;;;9.77;4.40;;;16.70;97.30;;;;;;4996063;28;20185;-81
2021/08/02 07:49:12;;;;;;;7.63;3.93;;;16.60;97.30;;;;;;4995265;28;20188;-82
2021/08/02 07:51:38;;;;;;;6.93;3.93;;;16.70;97.30;;;;;;4996242;28;20205;-82
2021/08/02 07:54:03;;;;;;;4.23;3.73;;;16.90;97.30;;;;;;4995517;28;20182;-81
2021/08/02 07:56:29;;;;;;;6.80;3.57;;;17.00;97.30;;;;;;4996062;28;20214;-83
2021/08/02 07:58:56;;;;;;;6.17;4.00;;;17.20;97.30;;;;;;4997156;28;20166;-83
2021/08/02 08:01:22;;;;;;;8.73;3.70;;;17.30;97.30;;;;;;4994178;28;20433;-82
2021/08/02 08:03:47;;;;;;;6.20;3.30;;;17.40;97.30;;;;;;4993477;28;20432;-84
2021/08/02 08:06:13;;;;;;;4.50;2.77;;;17.40;97.30;;;;;;4992361;28;20192;-83
2021/08/02 08:08:38;;;;;;;5.73;3.10;;;17.60;97.30;;;;;;4993195;28;20232;-84
2021/08/02 08:11:04;;;;;;;6.73;3.30;;;17.70;97.30;;;;;;4991665;28;20193;-84
2021/08/02 08:13:29;;;;;;;5.47;3.70;;;17.70;97.30;;;;;;4991719;28;20208;-84
2021/08/02 08:15:55;;;;;;;4.83;2.93;;;17.70;97.30;;;;;;4992144;28;20170;-83
2021/08/02 08:18:20;;;;;;;5.57;3.60;;;17.80;97.30;;;;;;4973559;28;20198;-84
2021/08/02 08:20:46;;;;;;;5.40;3.07;;;17.80;97.30;;;;;;4990155;28;20394;-83
2021/08/02 08:23:12;;;;;;;6.33;4.43;;;17.90;97.30;;;;;;4972226;28;20186;-83
2021/08/02 08:25:38;;;;;;;8.77;4.03;;;17.90;97.30;;;;;;4973550;28;20214;-84
2021/08/02 08:28:04;;;;;;;6.30;4.30;;;18.00;97.30;;;;;;4974541;28;20178;-82
2021/08/02 08:30:30;;;;;;;6.83;4.17;;;17.90;97.30;;;;;;4990622;28;21018;-84
2021/08/02 08:32:55;;;;;;;7.77;4.50;;;17.90;97.30;;;;;;4975787;28;20174;-85
2021/08/02 08:35:22;;;;;;;7.77;4.33;;;17.80;97.30;;;;;;4975045;28;20448;-83
2021/08/02 08:37:47;;;;;;;6.50;4.30;;;17.80;97.30;;;;;;4972891;28;20202;-82
2021/08/02 08:40:13;;;;;;;6.30;4.27;;;17.80;97.30;;;;;;4989270;28;20528;-82
2021/08/02 08:42:41;;;;;;;5.07;4.27;;;17.80;97.30;;;;;;4973658;28;20179;-82
2021/08/02 08:45:08;;;;;;;4.37;3.47;;;17.70;97.30;;;;;;4974304;28;20418;-82
2021/08/02 08:47:35;;;;;;;4.03;3.20;;;17.80;97.30;;;;;;4972105;28;20429;-84
2021/08/02 08:50:02;;;;;;;4.40;3.60;;;17.90;97.30;;;;;;4971534;28;20464;-84
2021/08/02 08:52:28;;;;;;;5.57;3.63;;;17.90;97.30;;;;;;4972867;28;20453;-84
2021/08/02 08:54:54;;;;;;;4.50;2.97;;;17.90;97.30;;;;;;4973062;28;20425;-82
2021/08/02 08:57:19;;;;;;;4.13;3.03;;;17.80;97.30;;;;;;4974460;28;20206;-84
2021/08/02 08:59:50;;;;;;;5.13;3.70;;;17.70;97.30;;;;;;4975903;28;20186;-83
2021/08/02 09:02:23;;;;;;;3.20;2.80;;;17.70;97.30;;;;;;4990964;28;20630;-83
2021/08/02 09:05:00;;;;;;;4.40;2.80;;;17.70;97.30;;;;;;4974762;28;20410;-81
2021/08/02 09:07:32;;;;;;;2.60;2.20;;;17.80;97.30;;;;;;4989620;28;20417;-82
2021/08/02 09:09:59;;;;;;;4.53;2.40;;;17.90;97.30;;;;;;4974811;28;20534;-82
2021/08/02 09:12:25;;;;;;;5.80;2.40;;;18.10;97.30;;;;;;4974524;28;21052;-83
2021/08/02 09:14:59;;;;;;;2.20;1.87;;;18.40;97.30;;;;;;4972476;28;20418;-82
2021/08/02 09:17:33;;;;;;;3.40;2.13;;;18.70;97.30;;;;;;4987702;28;20840;-82
2021/08/02 09:20:00;;;;;;;2.90;1.80;;;18.90;97.30;;;;;;4996347;28;20479;-81
2021/08/02 09:22:31;;;;;;;3.17;2.57;;;19.20;95.90;;;;;;4998541;28;20810;-81
2021/08/02 09:25:19;;;;;;;2.70;2.10;;;19.50;95.80;;;;;;4998626;28;20404;-82
2021/08/02 09:27:46;;;;;;;2.27;2.07;;;19.80;92.50;;;;;;4997678;28;20421;-82
2021/08/02 09:30:17;;;;;;;3.93;2.17;;;19.90;92.70;;;;;;4996849;28;20857;-81
2021/08/02 09:32:54;;;;;;;1.90;1.90;;;19.90;93.70;;;;;;4996985;28;20421;-81
2021/08/02 09:35:49;;;;;;;1.80;1.80;;;19.90;93.00;;;;;;4996806;28;20417;-81
2021/08/02 09:38:16;;;;;;;2.97;2.00;;;19.80;90.60;;;;;;4996687;28;20557;-81
2021/08/02 09:40:44;;;;;;;2.80;1.80;;;19.70;89.80;;;;;;4997952;28;20444;-81
2021/08/02 09:43:17;;;;;;;4.23;2.17;;;19.70;89.60;;;;;;4998407;28;20417;-81
2021/08/02 09:45:45;;;;;;;8.17;2.27;;;19.80;89.30;;;;;;4999240;28;20800;-82
2021/08/02 09:48:15;;;;;;;2.13;1.80;;;19.90;89.40;;;;;;4998062;28;20423;-82
2021/08/02 09:50:43;;;;;;;2.27;2.10;;;20.00;90.10;;;;;;4996641;28;20432;-83
2021/08/02 09:53:15;;;;;;;2.53;2.37;;;20.10;90.80;;;;;;4996818;28;21062;-82
2021/08/02 09:55:43;;;;;;;4.37;1.83;;;20.20;90.30;;;;;;4982914;28;20794;-80
2021/08/02 09:58:12;;;;;;;2.27;2.10;;;20.20;90.30;;;;;;4984613;28;20465;-82
2021/08/02 10:00:38;;;;;;;7.03;2.30;;;20.20;89.40;;;;;;4987998;28;20436;-81
2021/08/02 10:03:05;;;;;;;4.90;1.70;;;20.10;88.70;;;;;;4984167;28;20438;-82
2021/08/02 10:05:31;;;;;;;6.23;1.97;;;20.10;87.20;;;;;;4986790;28;20424;-82
2021/08/02 10:07:58;;;;;;;2.97;2.17;;;20.10;89.20;;;;;;4985145;28;20317;-84
2021/08/02 10:10:23;;;;;;;2.80;2.20;;;20.30;89.70;;;;;;4984391;28;20430;-80
2021/08/02 10:12:49;;;;;;;3.83;1.90;;;20.50;88.60;;;;;;4979155;28;20866;-80
2021/08/02 10:15:19;;;;;;;2.50;1.63;;;20.60;88.60;;;;;;4978730;28;20661;-82
2021/08/02 10:17:50;;;;;;;2.50;1.90;;;20.70;87.50;;;;;;5023559;28;20544;-85
2021/08/02 10:20:35;;;;;;;2.70;2.40;;;20.80;87.60;;;;;;4998108;28;20626;-80
2021/08/02 10:23:03;;;;;;;4.43;2.33;;;20.80;86.70;;;;;;4998879;28;20495;-83
2021/08/02 10:25:40;;;;;;;2.60;1.50;;;20.90;87.70;;;;;;4996127;28;20444;-81
2021/08/02 10:28:14;;;;;;;2.63;2.27;;;20.90;86.00;;;;;;4995609;28;20423;-80
2021/08/02 10:30:47;;;;;;;3.53;1.90;;;20.90;86.90;;;;;;4994719;28;20814;-83
2021/08/02 10:33:13;;;;;;;2.10;1.93;;;21.00;87.10;;;;;;4995404;28;20413;-82
2021/08/02 10:35:43;;;;;;;3.10;2.00;;;21.10;86.40;;;;;;4997766;28;20784;-80
2021/08/02 10:38:17;;;;;;;3.67;2.17;;;21.10;86.70;;;;;;4997505;28;20241;-80
2021/08/02 10:40:50;;;;;;;4.37;2.20;;;21.10;85.90;;;;;;4996185;28;20441;-81
2021/08/02 10:43:33;;;;;;;3.83;1.93;;;21.20;86.70;;;;;;4997341;28;20441;-81
2021/08/02 10:46:01;;;;;;;2.73;2.00;;;21.30;86.10;;;;;;4995762;28;20513;-81
2021/08/02 10:48:29;;;;;;;5.37;2.00;;;21.50;84.00;;;;;;4996303;28;20441;-81
2021/08/02 10:50:56;;;;;;;2.53;1.90;;;21.30;84.90;;;;;;4995496;28;20467;-81
2021/08/02 10:53:22;;;;;;;2.00;1.80;;;21.20;85.50;;;;;;4995176;28;20445;-82
2021/08/02 10:55:50;;;;;;;3.43;2.10;;;21.20;84.70;;;;;;4995962;28;20417;-81
2021/08/02 10:58:31;;;;;;;2.47;2.00;;;21.20;85.10;;;;;;4997283;28;20476;-81
2021/08/02 11:00:58;;;;;;;2.60;1.90;;;21.40;85.00;;;;;;4995646;28;20443;-82
2021/08/02 11:03:30;;;;;;;2.10;1.77;;;21.50;85.50;;;;;;4996951;28;20421;-81
2021/08/02 11:05:57;;;;;;;2.60;1.93;;;21.70;84.40;;;;;;4997794;28;20424;-81
2021/08/02 11:08:23;;;;;;;1.83;1.53;;;21.70;83.20;;;;;;4996736;28;20432;-83
2021/08/02 11:10:49;;;;;;;2.07;1.97;;;21.80;84.50;;;;;;4997676;28;20536;-81
2021/08/02 11:13:27;;;;;;;1.73;1.60;;;21.60;82.50;;;;;;4997416;28;20428;-82
2021/08/02 11:15:53;;;;;;;3.07;2.17;;;21.60;83.40;;;;;;4996734;28;20889;-81
2021/08/02 11:18:27;;;;;;;1.97;1.87;;;21.60;83.30;;;;;;4995367;28;20464;-83
2021/08/02 11:20:54;;;;;;;3.80;2.23;;;21.40;83.70;;;;;;4996454;28;20464;-80
2021/08/02 11:23:37;;;;;;;2.20;2.00;;;21.30;84.40;;;;;;4996394;28;20428;-82
2021/08/02 11:26:10;;;;;;;1.93;1.60;;;21.30;83.90;;;;;;4995230;28;20421;-82
2021/08/02 11:28:39;;;;;;;5.37;2.00;;;21.50;85.00;;;;;;4994729;28;20808;-81
2021/08/02 11:31:06;;;;;;;3.00;1.97;;;21.70;83.90;;;;;;4995490;28;20451;-80
2021/08/02 11:33:32;;;;;;;3.37;1.53;;;21.70;83.40;;;;;;4996309;28;20430;-82
2021/08/02 11:35:58;;;;;;;2.50;2.10;;;21.70;82.70;;;;;;4996963;28;20796;-82
2021/08/02 11:38:37;;;;;;;1.73;1.40;;;21.70;82.30;;;;;;4994558;28;20475;-83
2021/08/02 11:41:03;;;;;;;2.00;1.70;;;21.80;84.10;;;;;;4994906;28;20194;-81
2021/08/02 11:43:29;;;;;;;2.20;1.77;;;21.90;81.80;;;;;;4995536;28;20428;-81
2021/08/02 11:45:55;;;;;;;2.60;1.80;;;22.00;80.40;;;;;;4996002;28;20528;-82
2021/08/02 11:48:24;;;;;;;4.10;1.70;;;22.00;80.80;;;;;;4983321;28;20949;-81
2021/08/02 11:50:51;;;;;;;2.40;1.80;;;21.80;80.50;;;;;;4988974;28;20205;-80
2021/08/02 11:53:16;;;;;;;2.70;2.20;;;21.70;81.20;;;;;;4994227;28;20421;-81
2021/08/02 11:55:52;;;;;;;2.87;2.10;;;21.60;81.90;;;;;;4996611;28;20428;-83
2021/08/02 11:58:18;;;;;;;4.20;1.70;;;21.50;81.00;;;;;;4992699;28;20577;-79
2021/08/02 12:00:43;;;;;;;2.00;1.70;;;21.50;80.70;;;;;;4993227;28;20448;-81
2021/08/02 12:03:11;;;;;;;1.70;1.60;;;21.60;79.80;;;;;;4992908;28;20248;-79
2021/08/02 12:05:39;;;;;;;2.80;1.80;;;21.60;79.40;;;;;;4992601;28;20186;-81
2021/08/02 12:08:15;;;;;;;2.10;1.47;;;21.50;80.90;;;;;;4993255;28;20445;-81
2021/08/02 12:10:42;;;;;;;2.50;1.47;;;21.70;79.90;;;;;;4993799;28;20436;-84
2021/08/02 12:13:12;;;;;;;1.87;1.60;;;22.00;80.00;;;;;;4993868;28;20436;-80
2021/08/02 12:15:54;;;;;;;3.20;1.70;;;22.20;81.30;;;;;;4994072;28;20501;-80
2021/08/02 12:18:31;;;;;;;2.87;1.80;;;22.50;80.70;;;;;;4975411;28;20472;-81
2021/08/02 12:21:22;;;;;;;3.00;1.70;;;22.80;80.40;;;;;;4975665;28;21015;-80
2021/08/02 12:23:49;;;;;;;1.90;1.73;;;22.90;78.30;;;;;;4978308;28;20477;-81
2021/08/02 12:26:16;;;;;;;4.17;1.50;;;23.10;78.70;;;;;;4976346;28;20697;-80
2021/08/02 12:28:43;;;;;;;1.97;1.87;;;23.20;79.00;;;;;;4978742;28;20925;-80
2021/08/02 12:31:13;;;;;;;1.57;1.50;;;23.00;79.50;;;;;;4978089;28;20465;-80
2021/08/02 12:33:39;;;;;;;2.10;1.63;;;22.70;79.70;;;;;;4976343;28;20406;-81
2021/08/02 12:36:04;;;;;;;2.17;1.70;;;22.50;80.40;;;;;;4983271;28;20475;-83
2021/08/02 12:38:30;;;;;;;1.73;1.47;;;22.50;80.70;;;;;;4994131;28;20209;-81
2021/08/02 12:40:59;;;;;;;3.50;1.63;;;22.50;80.50;;;;;;4993560;28;20237;-80
2021/08/02 12:43:25;;;;;;;1.60;1.60;;;22.40;79.90;;;;;;4993363;28;20190;-84
2021/08/02 12:45:50;;;;;;;3.93;1.60;;;22.40;80.40;;;;;;4992527;28;21055;-80
2021/08/02 12:48:16;;;;;;;2.37;1.50;;;22.40;80.80;;;;;;4995033;28;20359;-80
2021/08/02 12:50:41;;;;;;;2.13;1.70;;;22.30;79.60;;;;;;4993900;28;20256;-82